Time;durP1;ratioP1;P1;durP2;ratioP2;P2;SDS_P1;SDS_P2;PMS_P1;PMS_P2;Temp;Humidity;BMP_temperature;BMP_pressure;BME280_temperature;BME280_humidity;BME280_pressure;Samples;Min_cycle;Max_cycle;Signal;HPM_P1;HPM_P2
2023/10/13 00:01:34;;;;;;;9.38;3.80;;;18.30;59.10;;;;;;5095523;28;20043;-62
2023/10/13 00:04:05;;;;;;;6.88;3.60;;;18.30;59.10;;;;;;5087886;28;20075;-62
2023/10/13 00:06:31;;;;;;;13.30;4.13;;;18.30;59.20;;;;;;5082284;28;20038;-62
2023/10/13 00:08:56;;;;;;;10.40;3.80;;;18.30;59.20;;;;;;5088568;28;20410;-61
2023/10/13 00:11:22;;;;;;;8.88;4.00;;;18.30;59.30;;;;;;5087423;28;20024;-61
2023/10/13 00:13:50;;;;;;;7.65;3.80;;;18.30;59.40;;;;;;5069102;28;20036;-63
2023/10/13 00:16:28;;;;;;;7.57;3.25;;;18.30;59.40;;;;;;5089551;28;20493;-62
2023/10/13 00:18:57;;;;;;;8.70;3.70;;;18.30;59.50;;;;;;5090904;28;20028;-62
2023/10/13 00:21:32;;;;;;;9.23;3.70;;;18.30;59.40;;;;;;5088891;28;20095;-61
2023/10/13 00:24:02;;;;;;;6.53;3.55;;;18.20;59.50;;;;;;5090186;28;20421;-61
2023/10/13 00:26:29;;;;;;;9.18;3.67;;;18.20;59.50;;;;;;5090828;28;20081;-64
2023/10/13 00:31:48;;;;;;;9.00;3.65;;;18.20;59.70;;;;;;5086985;28;20031;-62
2023/10/13 00:37:10;;;;;;;10.32;4.28;;;18.10;59.60;;;;;;5082658;28;20127;-61
2023/10/13 00:39:36;;;;;;;14.13;3.95;;;18.10;59.70;;;;;;5090556;28;20031;-63
2023/10/13 00:42:06;;;;;;;5.80;4.00;;;18.00;59.60;;;;;;5086887;28;20105;-63
2023/10/13 00:44:41;;;;;;;6.32;4.20;;;18.00;59.70;;;;;;5086341;28;20024;-60
2023/10/13 00:47:09;;;;;;;6.70;3.90;;;18.00;59.80;;;;;;5089868;28;20028;-63
2023/10/13 00:49:39;;;;;;;8.48;4.32;;;18.00;59.90;;;;;;5087343;28;20024;-61
2023/10/13 00:52:10;;;;;;;10.63;4.80;;;18.00;59.90;;;;;;5085774;28;20073;-62
2023/10/13 00:54:39;;;;;;;6.63;4.03;;;17.90;60.20;;;;;;5092061;28;20377;-63
2023/10/13 00:57:12;;;;;;;9.00;3.97;;;17.90;60.20;;;;;;5086221;28;20031;-61
2023/10/13 00:59:38;;;;;;;8.98;4.15;;;17.90;60.00;;;;;;5085843;28;20084;-61
2023/10/13 01:04:49;;;;;;;7.10;4.47;;;17.90;60.70;;;;;;5087410;28;20540;-62
2023/10/13 01:07:17;;;;;;;7.78;3.92;;;17.80;59.90;;;;;;5087433;28;20115;-62
2023/10/13 01:09:43;;;;;;;10.10;4.50;;;17.80;60.00;;;;;;5089123;28;20051;-62
2023/10/13 01:12:08;;;;;;;10.25;3.90;;;17.80;60.00;;;;;;5084389;28;20020;-61
2023/10/13 01:14:35;;;;;;;8.80;3.67;;;17.80;60.10;;;;;;5092110;28;20084;-60
2023/10/13 01:17:01;;;;;;;8.63;3.83;;;17.70;60.20;;;;;;5083678;28;20023;-61
2023/10/13 01:19:27;;;;;;;9.15;4.50;;;17.70;60.30;;;;;;5087194;28;20385;-61
2023/10/13 01:22:11;;;;;;;11.60;4.10;;;17.70;60.40;;;;;;5084486;28;20107;-61
2023/10/13 01:24:37;;;;;;;8.75;3.67;;;17.60;60.40;;;;;;5085920;28;20048;-61
2023/10/13 01:27:17;;;;;;;7.93;3.60;;;17.60;60.40;;;;;;5086786;28;20033;-61
2023/10/13 01:29:47;;;;;;;10.02;3.65;;;17.60;60.50;;;;;;5083400;28;20480;-61
2023/10/13 01:32:15;;;;;;;9.82;3.75;;;17.60;60.50;;;;;;5084088;28;20032;-62
2023/10/13 01:34:45;;;;;;;7.07;3.50;;;17.50;60.50;;;;;;5086951;28;20665;-61
2023/10/13 01:37:11;;;;;;;9.80;3.72;;;17.50;60.50;;;;;;5089932;28;20047;-62
2023/10/13 01:39:37;;;;;;;8.15;3.50;;;17.50;60.60;;;;;;5071913;28;20074;-63
2023/10/13 01:42:03;;;;;;;6.32;3.45;;;17.40;60.60;;;;;;5088457;28;20050;-61
2023/10/13 01:44:30;;;;;;;12.63;4.68;;;17.40;60.70;;;;;;5088682;28;20115;-62
2023/10/13 01:47:06;;;;;;;8.48;3.55;;;17.40;61.50;;;;;;5089135;28;20024;-62
2023/10/13 01:49:49;;;;;;;8.10;3.42;;;17.40;61.00;;;;;;5088421;28;20028;-62
2023/10/13 01:52:16;;;;;;;10.27;3.50;;;17.30;60.50;;;;;;5068185;28;20024;-62
2023/10/13 01:54:44;;;;;;;7.50;3.35;;;17.30;60.50;;;;;;5091357;28;20423;-62
2023/10/13 01:57:13;;;;;;;9.82;3.58;;;17.30;60.60;;;;;;5084372;28;20127;-62
2023/10/13 01:59:44;;;;;;;8.40;3.60;;;17.20;60.60;;;;;;5091675;28;20047;-62
2023/10/13 02:02:13;;;;;;;5.68;3.17;;;17.20;60.60;;;;;;5088138;28;20024;-61
2023/10/13 02:04:56;;;;;;;7.00;3.20;;;17.10;60.80;;;;;;5078693;28;20032;-61
2023/10/13 02:07:26;;;;;;;6.68;2.92;;;17.10;61.00;;;;;;5090750;28;20719;-62
2023/10/13 02:09:54;;;;;;;6.55;3.35;;;17.10;60.90;;;;;;5085928;28;20390;-62
2023/10/13 02:12:27;;;;;;;5.45;3.35;;;17.00;61.00;;;;;;5089203;28;20569;-61
2023/10/13 02:14:53;;;;;;;7.63;3.42;;;17.00;61.00;;;;;;5089247;28;20114;-61
2023/10/13 02:17:21;;;;;;;7.57;3.53;;;17.00;61.10;;;;;;5090177;28;20593;-62
2023/10/13 02:19:47;;;;;;;8.30;3.42;;;16.90;61.10;;;;;;5086439;28;20032;-62
2023/10/13 02:22:26;;;;;;;7.75;3.20;;;16.90;61.20;;;;;;5092904;28;20066;-63
2023/10/13 02:24:52;;;;;;;5.70;3.28;;;16.90;61.30;;;;;;5091333;28;20390;-63
2023/10/13 02:27:22;;;;;;;6.15;3.20;;;16.80;61.10;;;;;;5092285;28;20040;-62
2023/10/13 02:29:50;;;;;;;5.63;2.97;;;16.80;61.20;;;;;;5090272;28;20036;-62
2023/10/13 02:32:18;;;;;;;8.95;3.58;;;16.80;61.40;;;;;;5090797;28;20028;-62
2023/10/13 02:34:47;;;;;;;6.75;3.20;;;16.70;61.20;;;;;;5088495;28;20074;-61
2023/10/13 02:37:13;;;;;;;6.85;3.08;;;16.70;61.40;;;;;;5088382;28;20051;-61
2023/10/13 02:39:43;;;;;;;8.40;3.60;;;16.60;61.20;;;;;;5073743;28;20107;-62
2023/10/13 02:42:24;;;;;;;7.55;3.50;;;16.60;61.40;;;;;;5089027;28;20016;-63
2023/10/13 02:44:50;;;;;;;13.05;4.00;;;16.60;61.50;;;;;;5097758;28;20526;-62
2023/10/13 02:47:18;;;;;;;6.63;3.15;;;16.60;61.50;;;;;;5096778;28;20034;-63
2023/10/13 02:49:47;;;;;;;4.72;3.00;;;16.50;61.50;;;;;;5088230;28;20914;-63
2023/10/13 02:52:13;;;;;;;6.43;3.05;;;16.50;61.60;;;;;;5089365;28;20474;-60
2023/10/13 02:54:46;;;;;;;7.18;3.33;;;16.40;61.50;;;;;;5092452;28;20016;-61
2023/10/13 02:57:15;;;;;;;6.53;3.20;;;16.40;61.60;;;;;;5093245;28;20023;-61
2023/10/13 02:59:46;;;;;;;6.70;3.05;;;16.40;61.50;;;;;;5091667;28;20028;-62
2023/10/13 03:02:29;;;;;;;6.75;3.45;;;16.30;61.50;;;;;;5082089;28;20038;-63
2023/10/13 03:05:13;;;;;;;6.63;3.38;;;16.30;61.60;;;;;;5088025;28;20024;-61
2023/10/13 03:07:43;;;;;;;6.97;3.42;;;16.30;61.60;;;;;;5086661;28;20046;-62
2023/10/13 03:10:12;;;;;;;5.45;3.20;;;16.20;61.60;;;;;;5088358;28;20032;-63
2023/10/13 03:12:39;;;;;;;10.63;3.17;;;16.10;61.70;;;;;;5088552;28;20020;-62
2023/10/13 03:15:20;;;;;;;7.95;3.30;;;16.10;61.80;;;;;;5097541;28;20012;-62
2023/10/13 03:17:46;;;;;;;6.88;2.92;;;16.10;61.80;;;;;;5091978;28;20031;-61
2023/10/13 03:20:15;;;;;;;5.60;2.92;;;16.00;61.80;;;;;;5086539;28;20028;-62
2023/10/13 03:22:44;;;;;;;7.90;3.20;;;16.00;61.90;;;;;;5082593;28;20027;-61
2023/10/13 03:25:29;;;;;;;6.78;2.95;;;15.90;61.90;;;;;;5087956;28;20051;-61
2023/10/13 03:30:29;;;;;;;6.47;2.78;;;15.90;61.80;;;;;;5087071;28;19920;-62
2023/10/13 03:32:55;;;;;;;7.75;3.15;;;15.90;61.40;;;;;;5085869;28;20031;-61
2023/10/13 03:35:24;;;;;;;7.10;3.45;;;15.80;61.50;;;;;;5069649;28;20035;-62
2023/10/13 03:37:57;;;;;;;12.77;3.58;;;15.80;61.70;;;;;;5095287;28;20145;-62
2023/10/13 03:43:07;;;;;;;8.30;3.28;;;15.70;61.80;;;;;;5092386;28;20047;-61
2023/10/13 03:45:44;;;;;;;7.45;3.35;;;15.60;62.00;;;;;;5018477;28;20485;-60
2023/10/13 03:51:03;;;;;;;5.63;2.92;;;15.50;62.20;;;;;;5089848;28;20451;-61
2023/10/13 03:53:35;;;;;;;6.25;3.38;;;15.40;62.10;;;;;;5087231;28;20016;-61
2023/10/13 03:56:08;;;;;;;9.18;3.50;;;15.40;62.10;;;;;;5088872;28;20515;-61
2023/10/13 03:58:45;;;;;;;9.45;3.17;;;15.30;62.20;;;;;;5089748;28;20424;-61
2023/10/13 04:01:14;;;;;;;7.38;3.80;;;15.30;62.30;;;;;;5090449;28;20056;-60
2023/10/13 04:03:56;;;;;;;6.07;3.38;;;15.20;62.20;;;;;;5091458;28;20043;-61
2023/10/13 04:06:48;;;;;;;8.13;3.67;;;15.20;62.40;;;;;;5090596;28;20036;-61
2023/10/13 04:15:18;;;;;;;6.50;3.58;;;15.00;62.50;;;;;;5004036;28;20069;-61
2023/10/13 04:17:23;;;;;;;7.63;3.20;;;15.00;62.50;;;;;;4993558;28;20049;-61
2023/10/13 04:25:35;;;;;;;7.63;3.42;;;14.80;62.70;;;;;;5008490;28;20769;-62
2023/10/13 04:36:16;;;;;;;7.38;3.28;;;14.60;63.10;;;;;;5004343;28;20081;-61
2023/10/13 04:38:59;;;;;;;4.78;2.90;;;14.60;63.20;;;;;;5005199;28;20038;-62
2023/10/13 04:44:56;;;;;;;12.95;3.85;;;14.50;62.90;;;;;;5004847;28;20022;-61
2023/10/13 04:46:54;;;;;;;6.65;3.50;;;14.50;62.80;;;;;;4995023;28;20042;-61
2023/10/13 04:49:35;;;;;;;5.57;3.33;;;14.50;62.90;;;;;;5057955;28;20500;-61
2023/10/13 06:29:55;;;;;;;10.13;4.05;;;13.90;64.50;;;;;;5084601;28;19985;-61
2023/10/13 06:32:25;;;;;;;9.95;4.30;;;14.00;64.10;;;;;;5085153;28;20071;-62
2023/10/13 06:35:18;;;;;;;12.82;4.60;;;14.00;64.50;;;;;;5089341;28;20677;-62
2023/10/13 06:37:44;;;;;;;14.30;5.22;;;14.00;64.80;;;;;;5062464;28;20040;-62
2023/10/13 06:43:11;;;;;;;15.50;5.10;;;14.20;65.20;;;;;;5087227;28;20051;-62
2023/10/13 06:45:37;;;;;;;17.00;5.82;;;14.20;65.20;;;;;;5083493;28;20034;-61
2023/10/13 06:48:04;;;;;;;24.63;5.93;;;14.30;65.50;;;;;;5078562;28;20032;-61
2023/10/13 06:50:39;;;;;;;17.45;5.05;;;14.40;65.80;;;;;;5085154;28;20653;-63
2023/10/13 06:53:04;;;;;;;;;;;14.50;65.80;;;;;;5086349;28;20031;-62
2023/10/13 06:55:35;;;;;;;23.15;5.70;;;14.70;66.00;;;;;;5083663;28;19912;-63
2023/10/13 06:58:01;;;;;;;18.88;5.30;;;14.80;65.10;;;;;;5091710;28;20375;-61
2023/10/13 07:00:34;;;;;;;16.65;5.10;;;14.90;65.30;;;;;;5083051;28;20165;-61
2023/10/13 07:03:06;;;;;;;17.70;5.53;;;15.00;65.40;;;;;;5084533;28;20841;-62
2023/10/13 07:05:35;;;;;;;14.00;5.05;;;15.10;65.40;;;;;;5088021;28;20038;-61
2023/10/13 07:08:04;;;;;;;17.67;5.82;;;15.10;65.40;;;;;;5092651;28;20039;-61
2023/10/13 07:10:30;;;;;;;17.85;6.05;;;15.20;65.30;;;;;;5084503;28;20032;-62
2023/10/13 07:13:00;;;;;;;13.63;6.15;;;15.40;65.30;;;;;;5092405;28;20042;-62
2023/10/13 07:15:28;;;;;;;17.50;6.28;;;15.50;65.10;;;;;;5087301;28;20506;-62
2023/10/13 07:17:59;;;;;;;21.35;6.82;;;15.60;64.90;;;;;;5092778;28;20477;-62
2023/10/13 07:23:03;;;;;;;15.82;6.05;;;15.90;65.00;;;;;;5094418;28;20031;-62
2023/10/13 07:25:33;;;;;;;11.98;5.03;;;16.00;65.00;;;;;;5080509;28;20097;-63
2023/10/13 07:28:00;;;;;;;16.70;5.43;;;16.20;64.80;;;;;;5085162;28;20032;-62
2023/10/13 07:30:27;;;;;;;11.15;5.57;;;16.30;64.70;;;;;;5090882;28;20384;-63
2023/10/13 07:32:53;;;;;;;14.55;5.68;;;16.50;64.40;;;;;;5087719;28;20027;-62
2023/10/13 07:35:24;;;;;;;14.82;6.28;;;16.60;63.90;;;;;;5093548;28;20074;-62
2023/10/13 07:37:53;;;;;;;21.42;6.32;;;16.80;63.60;;;;;;5088326;28;20035;-61
2023/10/13 07:42:51;;;;;;;13.55;5.43;;;17.10;62.80;;;;;;5088956;28;20134;-61
2023/10/13 07:45:24;;;;;;;14.60;6.22;;;17.30;62.60;;;;;;5092007;28;20058;-62
2023/10/13 07:47:51;;;;;;;12.07;6.18;;;17.40;62.40;;;;;;5088589;28;20063;-62
2023/10/13 07:50:24;;;;;;;14.43;5.68;;;17.60;62.10;;;;;;5087590;28;20028;-62
2023/10/13 07:53:04;;;;;;;10.80;5.28;;;17.70;61.90;;;;;;5083867;28;20274;-62
2023/10/13 07:55:33;;;;;;;15.50;5.68;;;17.80;61.70;;;;;;5088241;28;20035;-62
2023/10/13 07:57:59;;;;;;;21.15;5.78;;;18.00;61.60;;;;;;5085451;28;20036;-61
2023/10/13 08:01:08;;;;;;;16.05;6.13;;;18.20;61.40;;;;;;5103049;27;20023;-62
2023/10/13 08:08:26;;;;;;;10.98;6.47;;;18.60;60.80;;;;;;5087780;28;20048;-63
2023/10/13 08:11:00;;;;;;;11.07;6.03;;;18.80;60.60;;;;;;5083114;28;20040;-62
2023/10/13 08:13:26;;;;;;;;;;;18.90;60.30;;;;;;5089043;28;20024;-62
2023/10/13 08:15:53;;;;;;;16.40;5.18;;;19.00;60.20;;;;;;5078337;28;19918;-63
2023/10/13 08:18:32;;;;;;;11.98;5.63;;;19.20;60.10;;;;;;5085730;28;20028;-63
2023/10/13 08:21:03;;;;;;;12.52;5.55;;;19.30;59.90;;;;;;5088651;28;20544;-62
2023/10/13 08:28:54;;;;;;;12.10;5.50;;;19.70;59.40;;;;;;5087535;28;20686;-63
2023/10/13 08:31:25;;;;;;;19.73;5.75;;;19.90;59.10;;;;;;5090339;28;20024;-63
2023/10/13 08:33:57;;;;;;;15.05;5.38;;;20.00;58.90;;;;;;5089200;28;20020;-63
2023/10/13 08:36:30;;;;;;;12.55;5.20;;;20.20;58.90;;;;;;5087904;28;20028;-63
2023/10/13 08:38:56;;;;;;;20.17;5.53;;;20.40;58.60;;;;;;5093105;28;20024;-63
2023/10/13 08:43:50;;;;;;;14.43;5.18;;;20.70;58.20;;;;;;5096860;28;20020;-62
2023/10/13 08:46:29;;;;;;;12.88;4.32;;;20.90;58.00;;;;;;5087236;28;20028;-63
2023/10/13 08:49:17;;;;;;;7.50;3.90;;;21.10;57.70;;;;;;5086225;28;20066;-62
2023/10/13 08:51:43;;;;;;;13.30;3.45;;;21.20;56.20;;;;;;5091518;28;20024;-62
2023/10/13 08:54:19;;;;;;;6.10;3.28;;;21.40;56.40;;;;;;5092269;28;20036;-63
2023/10/13 08:56:56;;;;;;;10.25;3.63;;;21.60;55.80;;;;;;5086360;28;20047;-63
2023/10/13 08:59:52;;;;;;;13.13;3.60;;;21.80;55.60;;;;;;5087702;28;20040;-61
2023/10/13 09:02:19;;;;;;;13.02;3.92;;;22.00;55.30;;;;;;5089115;28;20074;-63
2023/10/13 09:04:45;;;;;;;10.05;3.03;;;22.20;54.20;;;;;;5087960;28;20378;-62
2023/10/13 09:07:21;;;;;;;10.07;3.65;;;22.40;54.60;;;;;;5090338;28;20054;-63
2023/10/13 09:15:19;;;;;;;6.90;2.72;;;22.80;53.40;;;;;;5090231;28;20043;-64
2023/10/13 09:17:53;;;;;;;12.50;4.05;;;23.00;52.10;;;;;;5081865;28;20034;-63
2023/10/13 09:20:42;;;;;;;8.48;3.28;;;23.20;51.10;;;;;;5085277;28;20461;-63
2023/10/13 09:23:09;;;;;;;7.03;2.83;;;23.30;50.50;;;;;;5089147;28;20153;-62
2023/10/13 09:25:37;;;;;;;10.50;2.67;;;23.50;51.20;;;;;;5090048;28;20043;-64
2023/10/13 09:28:22;;;;;;;7.95;3.25;;;23.60;50.20;;;;;;5091423;28;20385;-62
2023/10/13 09:30:54;;;;;;;;;;;23.80;48.70;;;;;;5087028;28;20028;-63
2023/10/13 09:33:29;;;;;;;7.25;2.60;;;23.90;50.50;;;;;;5084887;28;19998;-63
2023/10/13 09:35:59;;;;;;;9.38;2.38;;;24.10;49.30;;;;;;5093158;28;20036;-63
2023/10/13 09:38:28;;;;;;;5.22;2.53;;;24.20;48.20;;;;;;5087031;28;20602;-63
2023/10/13 09:40:57;;;;;;;12.95;2.85;;;24.30;47.60;;;;;;5085602;28;20032;-63
2023/10/13 09:43:24;;;;;;;7.07;2.60;;;24.50;46.80;;;;;;5087902;28;20016;-62
2023/10/13 09:46:01;;;;;;;9.88;2.67;;;24.60;47.00;;;;;;5027658;28;20023;-63
2023/10/13 09:48:41;;;;;;;7.78;2.78;;;24.70;46.80;;;;;;5084357;28;20421;-63
2023/10/13 09:51:12;;;;;;;7.18;2.35;;;24.80;45.20;;;;;;5067057;28;20118;-63
2023/10/13 09:53:42;;;;;;;9.65;3.05;;;24.90;45.00;;;;;;5087090;28;20036;-63
2023/10/13 09:56:23;;;;;;;7.80;2.97;;;25.00;44.70;;;;;;5068711;28;20494;-64
2023/10/13 09:59:00;;;;;;;7.95;2.70;;;25.10;43.70;;;;;;5081761;28;20527;-63
2023/10/13 10:01:32;;;;;;;8.13;1.98;;;25.30;44.20;;;;;;5096768;28;20052;-63
2023/10/13 10:04:17;;;;;;;6.82;2.80;;;25.40;44.30;;;;;;5089771;28;20373;-64
2023/10/13 10:06:57;;;;;;;4.35;2.40;;;25.50;43.00;;;;;;5088522;28;20751;-63
2023/10/13 10:09:43;;;;;;;14.13;2.88;;;25.70;41.00;;;;;;5070418;28;20043;-62
2023/10/13 10:12:47;;;;;;;5.70;2.40;;;25.80;41.70;;;;;;5096225;28;20491;-62
2023/10/13 10:15:30;;;;;;;11.68;2.40;;;25.90;42.20;;;;;;5084508;28;20419;-63
2023/10/13 10:17:56;;;;;;;12.27;2.50;;;26.10;43.10;;;;;;5064462;28;20064;-63
2023/10/13 10:20:51;;;;;;;10.55;2.70;;;26.20;43.10;;;;;;5082539;28;20497;-63
2023/10/13 10:23:35;;;;;;;7.25;2.22;;;26.30;40.40;;;;;;5089672;28;20028;-63
2023/10/13 10:26:19;;;;;;;12.30;3.25;;;26.40;41.10;;;;;;5068773;28;20494;-64
2023/10/13 10:28:46;;;;;;;10.45;3.15;;;26.50;41.50;;;;;;5092315;28;20044;-64
2023/10/13 10:31:19;;;;;;;7.00;2.40;;;26.60;41.50;;;;;;5089000;28;20032;-63
2023/10/13 10:33:55;;;;;;;6.72;2.45;;;26.70;40.90;;;;;;5092929;28;20040;-63
2023/10/13 10:36:30;;;;;;;10.38;2.78;;;26.80;40.60;;;;;;5071219;28;20423;-63
2023/10/13 10:39:00;;;;;;;11.52;2.63;;;26.90;39.30;;;;;;5089885;28;20046;-63
2023/10/13 10:44:33;;;;;;;6.47;2.40;;;27.00;39.90;;;;;;5026950;28;20034;-63
2023/10/13 10:47:10;;;;;;;5.85;2.13;;;27.10;39.90;;;;;;4925583;28;20217;-63
2023/10/13 10:49:40;;;;;;;8.93;3.20;;;27.20;38.50;;;;;;5027199;28;20037;-63
2023/10/13 10:52:18;;;;;;;6.65;2.60;;;27.30;38.90;;;;;;5026405;28;20040;-63
2023/10/13 10:54:44;;;;;;;14.35;3.15;;;27.40;38.70;;;;;;5025970;28;20130;-62
2023/10/13 10:57:11;;;;;;;8.35;2.75;;;27.50;38.80;;;;;;5026217;28;20101;-63
2023/10/13 10:59:38;;;;;;;7.35;2.58;;;27.50;38.50;;;;;;5026149;28;20057;-63
2023/10/13 11:02:04;;;;;;;4.72;2.28;;;27.60;38.00;;;;;;5025744;28;20044;-62
2023/10/13 11:04:40;;;;;;;6.85;2.10;;;27.70;38.20;;;;;;5025578;28;20045;-62
2023/10/13 11:07:08;;;;;;;7.32;2.40;;;27.80;37.90;;;;;;5025984;28;20045;-62
2023/10/13 11:12:13;;;;;;;6.97;2.42;;;27.90;37.40;;;;;;5023784;28;20033;-63
2023/10/13 11:14:39;;;;;;;6.32;2.10;;;27.90;35.70;;;;;;5024447;28;20045;-63
2023/10/13 11:17:13;;;;;;;9.02;2.40;;;28.00;36.60;;;;;;5024606;28;20029;-64
2023/10/13 11:19:38;;;;;;;5.53;2.13;;;28.00;36.50;;;;;;5047634;28;20048;-64
2023/10/13 11:22:29;;;;;;;5.93;2.25;;;28.00;36.90;;;;;;5091516;28;20076;-62
2023/10/13 11:25:09;;;;;;;4.78;2.10;;;28.10;36.40;;;;;;5092561;28;20489;-64
2023/10/13 11:28:17;;;;;;;8.98;2.47;;;28.20;36.10;;;;;;5090304;28;20131;-64
2023/10/13 11:30:31;;;;;;;7.50;2.70;;;28.30;35.90;;;;;;5080741;28;20040;-63
2023/10/13 11:33:10;;;;;;;6.57;2.45;;;28.30;35.50;;;;;;5087331;28;20028;-64
2023/10/13 11:38:29;;;;;;;7.93;2.35;;;28.40;35.10;;;;;;5080957;28;20025;-63
2023/10/13 11:51:47;;;;;;;8.35;2.63;;;28.60;33.50;;;;;;5089174;28;20112;-63
2023/10/13 11:54:21;;;;;;;5.82;2.42;;;28.60;34.20;;;;;;5095967;28;20072;-65
2023/10/13 11:56:47;;;;;;;;;;;28.70;33.90;;;;;;5089613;28;20032;-64
2023/10/13 11:59:24;;;;;;;6.85;1.95;;;28.80;36.20;;;;;;5097319;28;19951;-64
2023/10/13 12:07:23;;;;;;;7.82;2.10;;;29.10;34.30;;;;;;5090971;28;20122;-64
2023/10/13 12:12:19;;;;;;;5.72;2.45;;;29.20;33.50;;;;;;5087966;28;20467;-63
2023/10/13 12:14:58;;;;;;;5.60;2.33;;;29.20;33.90;;;;;;5091627;28;20032;-63
2023/10/13 12:17:34;;;;;;;7.15;2.25;;;29.30;33.50;;;;;;5091326;28;20039;-63
2023/10/13 12:20:05;;;;;;;9.85;2.30;;;29.40;33.50;;;;;;5090498;28;20019;-63
2023/10/13 12:22:51;;;;;;;6.93;2.25;;;29.40;32.10;;;;;;5093573;28;20026;-63
2023/10/13 12:25:34;;;;;;;8.30;2.13;;;29.50;32.80;;;;;;5089567;28;20032;-64
2023/10/13 12:28:23;;;;;;;7.25;2.25;;;29.50;32.50;;;;;;5086485;28;20692;-64
2023/10/13 12:30:48;;;;;;;8.68;2.15;;;29.50;32.20;;;;;;5087343;28;20382;-64
2023/10/13 12:33:23;;;;;;;14.38;2.30;;;29.50;32.10;;;;;;5089643;28;20740;-64
2023/10/13 12:52:16;;;;;;;6.20;2.20;;;30.30;31.40;;;;;;5091840;28;20054;-64
2023/10/13 12:54:46;;;;;;;7.38;2.17;;;30.40;31.40;;;;;;5073561;28;20128;-63
2023/10/13 12:57:14;;;;;;;8.63;2.22;;;30.50;31.20;;;;;;5105768;27;20038;-64
2023/10/13 12:59:40;;;;;;;5.55;2.28;;;30.60;30.90;;;;;;5087408;28;20020;-64
2023/10/13 13:02:07;;;;;;;7.78;2.20;;;30.60;30.40;;;;;;5086559;28;20450;-63
2023/10/13 13:04:36;;;;;;;18.02;2.65;;;30.60;30.00;;;;;;5090755;28;20378;-65
2023/10/13 13:07:05;;;;;;;9.60;3.17;;;30.70;30.00;;;;;;5080931;28;20036;-64
2023/10/13 13:09:32;;;;;;;9.27;2.75;;;30.70;29.90;;;;;;5088310;28;20044;-64
2023/10/13 13:11:57;;;;;;;5.50;2.08;;;30.80;30.00;;;;;;5084633;28;20028;-64
2023/10/13 13:14:28;;;;;;;10.10;2.20;;;30.90;30.00;;;;;;5082682;28;20134;-64
2023/10/13 13:17:06;;;;;;;11.02;2.53;;;31.00;29.60;;;;;;5088398;28;20123;-64
2023/10/13 13:19:41;;;;;;;5.88;2.60;;;31.00;28.90;;;;;;5091780;28;20031;-64
2023/10/13 13:22:14;;;;;;;5.63;1.90;;;31.10;29.70;;;;;;5086799;28;20114;-63
2023/10/13 13:24:44;;;;;;;11.88;2.08;;;31.10;29.50;;;;;;5086529;28;20048;-63
2023/10/13 13:27:14;;;;;;;5.85;1.95;;;31.20;29.20;;;;;;5086352;28;20110;-64
2023/10/13 13:29:41;;;;;;;4.70;2.38;;;31.20;29.10;;;;;;5087642;28;20055;-64
2023/10/13 13:32:17;;;;;;;5.18;2.10;;;31.30;29.10;;;;;;5086409;28;20025;-64
2023/10/13 13:34:44;;;;;;;6.28;2.38;;;31.30;28.90;;;;;;5090504;28;20393;-63
2023/10/13 13:37:12;;;;;;;8.63;2.83;;;31.40;28.90;;;;;;5094213;28;20035;-63
2023/10/13 13:39:44;;;;;;;8.48;1.90;;;31.40;28.60;;;;;;5090412;28;20129;-63
2023/10/13 13:42:09;;;;;;;5.13;1.88;;;31.40;29.00;;;;;;5089734;28;20051;-64
2023/10/13 13:44:38;;;;;;;6.35;1.90;;;31.50;28.80;;;;;;5088378;28;20461;-63
2023/10/13 13:47:11;;;;;;;7.95;2.38;;;31.50;28.90;;;;;;5088246;28;20054;-62
2023/10/13 13:49:40;;;;;;;5.72;2.03;;;31.50;29.10;;;;;;5090710;28;20031;-63
2023/10/13 13:52:07;;;;;;;8.32;2.65;;;31.60;29.00;;;;;;5089755;28;20047;-63
2023/10/13 13:54:33;;;;;;;8.38;2.22;;;31.70;28.60;;;;;;5093439;28;20016;-63
2023/10/13 13:56:59;;;;;;;8.00;2.47;;;31.70;28.70;;;;;;5100519;28;20042;-63
2023/10/13 13:59:24;;;;;;;15.77;3.10;;;31.80;28.50;;;;;;5092010;28;20181;-65
2023/10/13 14:01:52;;;;;;;7.95;2.20;;;31.80;28.00;;;;;;5083313;28;20088;-64
2023/10/13 14:04:18;;;;;;;7.22;2.33;;;31.90;28.30;;;;;;5089564;28;20024;-62
2023/10/13 14:06:44;;;;;;;13.43;2.05;;;31.90;28.00;;;;;;5086508;28;20031;-64
2023/10/13 14:14:11;;;;;;;9.93;2.10;;;32.00;28.00;;;;;;5084445;28;20107;-63
2023/10/13 14:16:44;;;;;;;7.70;1.90;;;32.10;28.10;;;;;;5081533;28;20035;-63
2023/10/13 14:19:26;;;;;;;6.55;1.95;;;32.20;28.10;;;;;;5089115;28;20501;-65
2023/10/13 14:21:55;;;;;;;5.72;2.20;;;32.30;28.30;;;;;;5087398;28;20123;-62
2023/10/13 14:24:28;;;;;;;8.18;2.28;;;32.40;27.70;;;;;;5089468;28;20044;-64
2023/10/13 14:26:55;;;;;;;3.97;2.03;;;32.40;27.30;;;;;;5089800;28;20024;-63
2023/10/13 14:29:21;;;;;;;12.25;2.67;;;32.50;27.20;;;;;;5085448;28;20127;-64
2023/10/13 14:31:48;;;;;;;16.95;2.38;;;32.50;27.40;;;;;;5086149;28;20165;-64
2023/10/13 14:34:17;;;;;;;9.20;2.15;;;32.50;26.90;;;;;;5086380;28;20059;-64
2023/10/13 14:36:48;;;;;;;10.68;2.80;;;32.50;27.10;;;;;;5091575;28;20012;-64
2023/10/13 14:39:14;;;;;;;8.57;2.22;;;32.50;26.90;;;;;;5095041;28;20122;-62
2023/10/13 14:41:40;;;;;;;10.55;1.90;;;32.50;26.80;;;;;;5088575;28;20419;-64
2023/10/13 14:44:06;;;;;;;4.55;2.10;;;32.50;26.90;;;;;;5086235;28;20073;-63
2023/10/13 14:46:35;;;;;;;9.02;2.45;;;32.50;26.80;;;;;;5089058;28;20038;-65
2023/10/13 14:49:02;;;;;;;8.73;2.72;;;32.50;26.80;;;;;;5092274;28;20036;-63
2023/10/13 14:51:28;;;;;;;5.78;2.55;;;32.50;26.50;;;;;;5082640;28;20035;-65
2023/10/13 14:53:59;;;;;;;8.27;2.38;;;32.40;26.50;;;;;;5085481;28;20028;-63
2023/10/13 14:56:26;;;;;;;4.90;2.03;;;32.40;26.40;;;;;;5090909;28;20062;-64
2023/10/13 14:58:53;;;;;;;11.10;3.50;;;32.40;26.30;;;;;;5088310;28;20078;-64
2023/10/13 15:01:21;;;;;;;18.38;3.03;;;32.30;26.10;;;;;;5086673;28;20024;-63
2023/10/13 15:03:48;;;;;;;4.57;2.35;;;32.30;26.40;;;;;;5087531;28;20064;-63
2023/10/13 15:06:20;;;;;;;3.95;2.15;;;32.30;26.40;;;;;;5088782;28;20091;-63
2023/10/13 15:08:47;;;;;;;8.73;2.67;;;32.30;26.20;;;;;;5079183;28;20059;-64
2023/10/13 15:11:13;;;;;;;9.45;2.47;;;32.30;26.40;;;;;;5085721;28;20429;-63
2023/10/13 15:13:42;;;;;;;8.65;2.47;;;32.30;26.30;;;;;;5087994;28;20440;-63
2023/10/13 15:16:15;;;;;;;7.22;2.15;;;32.30;26.00;;;;;;5091823;28;20058;-64
2023/10/13 15:18:40;;;;;;;4.45;2.30;;;32.30;25.80;;;;;;5091599;28;20469;-63
2023/10/13 15:21:08;;;;;;;10.18;2.25;;;32.40;26.40;;;;;;5093146;28;20097;-62
2023/10/13 15:23:42;;;;;;;9.43;2.50;;;32.40;26.50;;;;;;5093162;28;20020;-63
2023/10/13 15:26:09;;;;;;;7.68;2.50;;;32.40;26.20;;;;;;5071460;28;20048;-64
2023/10/13 15:28:38;;;;;;;6.25;2.17;;;32.40;26.30;;;;;;5088862;28;20061;-63
2023/10/13 15:31:22;;;;;;;7.18;2.40;;;32.40;26.20;;;;;;5094634;28;20023;-63
2023/10/13 15:33:54;;;;;;;7.25;2.20;;;32.50;26.00;;;;;;5094984;28;20032;-64
2023/10/13 15:36:23;;;;;;;5.45;2.10;;;32.50;26.10;;;;;;5090849;28;20434;-63
2023/10/13 15:38:58;;;;;;;5.60;2.53;;;32.30;25.90;;;;;;5092525;28;20047;-62
2023/10/13 15:41:26;;;;;;;5.60;1.98;;;32.10;26.00;;;;;;5084369;28;20023;-64
2023/10/13 15:43:54;;;;;;;5.32;2.20;;;31.80;26.10;;;;;;5091359;28;20032;-63
2023/10/13 15:46:21;;;;;;;8.93;2.80;;;31.50;26.30;;;;;;4971145;28;20028;-63
2023/10/13 15:48:48;;;;;;;9.27;2.75;;;31.20;26.40;;;;;;5088331;28;20051;-63
2023/10/13 15:51:14;;;;;;;6.90;2.58;;;30.80;26.50;;;;;;5088395;28;20070;-62
2023/10/13 15:53:40;;;;;;;8.63;2.03;;;30.50;26.90;;;;;;5088710;28;20454;-63
2023/10/13 15:56:11;;;;;;;11.57;2.85;;;30.20;27.20;;;;;;5093869;28;20081;-62
2023/10/13 15:59:06;;;;;;;10.15;2.53;;;29.90;27.50;;;;;;5089589;28;20370;-63
2023/10/13 16:01:33;;;;;;;12.88;3.30;;;29.60;27.70;;;;;;5085232;28;20028;-64
2023/10/13 16:04:07;;;;;;;10.07;2.65;;;29.40;28.00;;;;;;5091328;28;20016;-62
2023/10/13 16:06:33;;;;;;;10.93;2.60;;;29.20;28.40;;;;;;5091157;28;20032;-63
2023/10/13 16:08:59;;;;;;;5.68;2.70;;;29.00;28.70;;;;;;5092408;28;20038;-64
2023/10/13 16:11:25;;;;;;;10.68;2.95;;;28.80;28.80;;;;;;5086042;28;20497;-63
2023/10/13 16:13:53;;;;;;;12.27;2.65;;;28.60;28.90;;;;;;5087697;28;20028;-63
2023/10/13 16:16:24;;;;;;;8.30;2.97;;;28.40;29.10;;;;;;5093260;28;20466;-62
2023/10/13 16:18:53;;;;;;;10.43;3.45;;;28.30;29.40;;;;;;5090783;28;20095;-64
2023/10/13 16:21:19;;;;;;;5.88;2.90;;;28.10;29.50;;;;;;5093407;28;20016;-64
2023/10/13 16:23:50;;;;;;;13.27;3.10;;;27.90;29.70;;;;;;5091568;28;20031;-63
2023/10/13 16:26:21;;;;;;;12.35;3.15;;;27.80;30.00;;;;;;5086121;28;20382;-64
2023/10/13 16:28:53;;;;;;;11.20;3.85;;;27.60;30.20;;;;;;5075108;28;20036;-63
2023/10/13 16:31:22;;;;;;;6.97;2.88;;;27.40;30.50;;;;;;5089136;28;20337;-63
2023/10/13 16:33:49;;;;;;;8.52;2.78;;;27.30;30.80;;;;;;5085670;28;20107;-63
2023/10/13 16:36:15;;;;;;;8.57;3.35;;;27.10;31.10;;;;;;5090450;28;20038;-63
2023/10/13 16:38:45;;;;;;;7.95;3.30;;;27.00;31.40;;;;;;5090039;28;20020;-61